createdAt,value
2023-05-22T00:02:29.014Z,11.85
2023-05-22T00:05:18.469Z,11.18
2023-05-22T00:08:06.649Z,11.75
2023-05-22T00:10:54.377Z,11.60
2023-05-22T00:13:41.376Z,11.50
2023-05-22T00:16:28.398Z,12.05
2023-05-22T00:19:19.494Z,10.98
2023-05-22T00:22:06.643Z,11.88
2023-05-22T00:24:53.485Z,10.50
2023-05-22T00:27:40.436Z,11.32
2023-05-22T00:30:27.295Z,12.38
2023-05-22T00:33:14.173Z,11.18
2023-05-22T00:36:01.110Z,11.57
2023-05-22T00:38:48.456Z,11.50
2023-05-22T00:41:35.507Z,11.55
2023-05-22T00:44:23.190Z,11.30
2023-05-22T00:47:10.093Z,11.57
2023-05-22T00:49:57.438Z,11.38
2023-05-22T00:52:46.472Z,11.30
2023-05-22T00:55:33.432Z,11.73
2023-05-22T00:58:21.775Z,12.02
2023-05-22T01:01:11.484Z,10.40
2023-05-22T01:03:59.383Z,11.98
2023-05-22T01:06:47.747Z,11.55
2023-05-22T01:09:34.809Z,12.07
2023-05-22T01:12:48.887Z,11.88
2023-05-22T01:15:46.010Z,13.02
2023-05-22T01:18:57.379Z,12.70
2023-05-22T01:22:21.536Z,12.65
2023-05-22T01:25:40.661Z,12.23
2023-05-22T01:28:54.796Z,12.10
2023-05-22T01:31:44.559Z,11.77
2023-05-22T01:34:34.216Z,11.88
2023-05-22T01:37:24.209Z,11.73
2023-05-22T01:40:12.317Z,11.90
2023-05-22T01:42:59.228Z,12.35
2023-05-22T01:45:46.135Z,11.27
2023-05-22T01:48:33.418Z,13.18
2023-05-22T01:51:47.579Z,12.65
2023-05-22T01:54:50.247Z,12.32
2023-05-22T01:57:47.967Z,11.82
2023-05-22T02:00:35.978Z,11.15
2023-05-22T02:03:29.135Z,11.70
2023-05-22T02:06:16.443Z,12.07
2023-05-22T02:09:03.477Z,12.80
2023-05-22T02:11:51.450Z,12.95
2023-05-22T02:14:38.672Z,12.93
2023-05-22T02:17:26.147Z,13.55
2023-05-22T02:20:15.361Z,12.88
2023-05-22T02:23:02.355Z,13.38
2023-05-22T02:25:49.207Z,12.40
2023-05-22T02:28:36.324Z,13.30
2023-05-22T02:31:23.332Z,13.85
2023-05-22T02:34:11.115Z,12.52
2023-05-22T02:37:00.045Z,12.30
2023-05-22T02:39:46.937Z,12.02
2023-05-22T02:42:34.103Z,13.38
2023-05-22T02:45:21.371Z,66.15
2023-05-22T02:48:08.281Z,248.20
2023-05-22T02:50:55.424Z,214.32
2023-05-22T02:53:42.337Z,51.10
2023-05-22T02:56:29.614Z,37.83
2023-05-22T02:59:16.637Z,25.88
2023-05-22T03:02:03.898Z,29.92
2023-05-22T03:04:50.798Z,18.13
2023-05-22T03:07:37.728Z,19.27
2023-05-22T03:10:24.926Z,17.58
2023-05-22T03:13:11.850Z,15.77
2023-05-22T03:15:59.793Z,72.68
2023-05-22T03:18:46.879Z,37.17
2023-05-22T03:21:33.768Z,30.67
2023-05-22T03:24:21.244Z,17.83
2023-05-22T03:27:08.161Z,20.92
2023-05-22T03:29:55.046Z,16.77
2023-05-22T03:32:44.945Z,16.52
2023-05-22T03:35:31.850Z,15.38
2023-05-22T03:38:18.843Z,14.40
2023-05-22T03:41:05.854Z,14.48
2023-05-22T03:43:52.744Z,14.27
2023-05-22T03:46:39.653Z,14.63
2023-05-22T03:49:26.509Z,14.25
2023-05-22T03:52:13.393Z,13.27
2023-05-22T03:55:00.434Z,14.68
2023-05-22T03:57:47.332Z,12.63
2023-05-22T04:00:34.792Z,14.20
2023-05-22T04:03:21.877Z,12.95
2023-05-22T04:06:08.969Z,13.77
2023-05-22T04:08:56.167Z,13.55
2023-05-22T04:11:43.065Z,13.57
2023-05-22T04:14:30.007Z,13.20
2023-05-22T04:17:16.959Z,12.93
2023-05-22T04:20:05.238Z,13.32
2023-05-22T04:22:52.197Z,12.70
2023-05-22T04:25:39.166Z,11.85
2023-05-22T04:28:26.735Z,13.57
2023-05-22T04:31:14.125Z,11.95
2023-05-22T04:34:01.101Z,13.60
2023-05-22T04:36:48.122Z,12.07
2023-05-22T04:39:34.956Z,13.68
2023-05-22T04:42:22.563Z,14.18
2023-05-22T04:45:09.960Z,13.20
2023-05-22T04:47:57.160Z,11.88
2023-05-22T04:50:46.319Z,12.40
2023-05-22T04:53:38.619Z,13.10
2023-05-22T04:56:36.185Z,11.55
2023-05-22T04:59:26.590Z,12.63
2023-05-22T05:02:14.203Z,12.02
2023-05-22T05:05:01.127Z,12.52
2023-05-22T05:07:50.217Z,12.43
2023-05-22T05:10:37.688Z,11.43
2023-05-22T05:13:30.580Z,11.88
2023-05-22T05:16:17.461Z,12.07
2023-05-22T05:19:04.378Z,11.85
2023-05-22T05:21:52.345Z,11.18
2023-05-22T05:24:39.384Z,11.70
2023-05-22T05:27:26.257Z,12.05
2023-05-22T05:30:13.312Z,11.23
2023-05-22T05:33:00.228Z,10.40
2023-05-22T05:35:47.199Z,10.77
2023-05-22T05:38:34.080Z,11.75
2023-05-22T05:41:21.459Z,11.27
2023-05-22T05:44:08.355Z,10.73
2023-05-22T05:46:55.401Z,11.13
2023-05-22T05:49:42.475Z,12.00
2023-05-22T05:52:32.558Z,12.48
2023-05-22T05:55:19.622Z,12.18
2023-05-22T05:58:06.526Z,12.23
2023-05-22T06:00:53.485Z,11.25
2023-05-22T06:03:40.563Z,11.57
2023-05-22T06:06:29.781Z,11.65
2023-05-22T06:09:16.994Z,12.25
2023-05-22T06:12:04.368Z,11.23
2023-05-22T06:14:51.475Z,11.23
2023-05-22T06:17:38.623Z,11.32
2023-05-22T06:20:25.491Z,11.30
2023-05-22T06:23:12.575Z,11.25
2023-05-22T06:25:59.448Z,11.90
2023-05-22T06:28:46.340Z,11.80
2023-05-22T06:31:35.452Z,11.38
2023-05-22T06:34:22.536Z,10.05
2023-05-22T06:37:09.491Z,12.23
2023-05-22T06:39:56.486Z,11.88
2023-05-22T06:42:44.732Z,10.98
2023-05-22T06:45:31.769Z,10.75
2023-05-22T06:48:18.828Z,10.63
2023-05-22T06:51:05.835Z,10.73
2023-05-22T06:53:52.729Z,10.52
2023-05-22T06:56:42.730Z,10.50
2023-05-22T06:59:30.844Z,11.05
2023-05-22T07:02:17.766Z,10.02
2023-05-22T07:05:05.154Z,10.43
2023-05-22T07:07:52.195Z,9.68
2023-05-22T07:10:39.321Z,10.80
2023-05-22T07:13:26.341Z,10.45
2023-05-22T07:16:14.720Z,11.00
2023-05-22T07:19:02.453Z,10.82
2023-05-22T07:21:49.296Z,10.57
2023-05-22T07:24:36.244Z,10.73
2023-05-22T07:27:23.108Z,9.90
2023-05-22T07:30:10.420Z,10.95
2023-05-22T07:32:57.450Z,10.93
2023-05-22T07:35:45.652Z,10.75
2023-05-22T07:38:32.521Z,10.25
2023-05-22T07:41:19.391Z,10.38
2023-05-22T07:44:06.451Z,10.15
2023-05-22T07:46:55.505Z,10.13
2023-05-22T07:49:42.405Z,11.32
2023-05-22T07:52:29.298Z,10.18
2023-05-22T07:55:16.327Z,9.77
2023-05-22T07:58:04.299Z,9.15
2023-05-22T08:00:51.236Z,10.80
2023-05-22T08:03:38.461Z,9.55
2023-05-22T08:06:25.402Z,9.77
2023-05-22T08:09:12.441Z,9.55
2023-05-22T08:11:59.337Z,9.48
2023-05-22T08:14:46.300Z,9.70
2023-05-22T08:17:33.502Z,10.00
2023-05-22T08:20:20.470Z,9.48
2023-05-22T08:23:07.491Z,10.48
2023-05-22T08:25:54.360Z,9.75
2023-05-22T08:28:44.642Z,9.52
2023-05-22T08:31:34.266Z,10.77
2023-05-22T08:34:21.225Z,9.90
2023-05-22T08:37:09.410Z,9.90
2023-05-22T08:39:56.340Z,9.88
2023-05-22T08:42:43.285Z,9.32
2023-05-22T08:45:34.072Z,9.63
2023-05-22T08:48:22.630Z,9.98
2023-05-22T08:51:15.033Z,8.93
2023-05-22T08:54:06.814Z,8.95
2023-05-22T08:56:57.144Z,8.53
2023-05-22T08:59:45.899Z,9.07
2023-05-22T09:02:33.169Z,8.18
2023-05-22T09:05:20.133Z,8.63
2023-05-22T09:08:19.025Z,8.23
2023-05-22T09:11:07.148Z,8.23
2023-05-22T09:14:07.293Z,7.85
2023-05-22T09:16:55.232Z,8.57
2023-05-22T09:19:45.894Z,8.65
2023-05-22T09:22:39.903Z,7.97
2023-05-22T09:25:27.502Z,7.70
2023-05-22T09:28:14.476Z,7.57
2023-05-22T09:31:04.143Z,8.90
2023-05-22T09:33:51.508Z,7.90
2023-05-22T09:36:38.354Z,8.02
2023-05-22T09:39:25.302Z,8.43
2023-05-22T09:42:15.078Z,7.55
2023-05-22T09:45:11.131Z,8.10
2023-05-22T09:47:58.104Z,7.55
2023-05-22T09:50:51.233Z,8.23
2023-05-22T09:53:41.128Z,8.30
2023-05-22T09:56:38.580Z,7.90
2023-05-22T09:59:30.083Z,8.00
2023-05-22T10:02:18.175Z,7.75
2023-05-22T10:05:08.246Z,7.82
2023-05-22T10:08:07.584Z,7.82
2023-05-22T10:10:54.983Z,6.97
2023-05-22T10:13:42.165Z,6.40
2023-05-22T10:16:30.255Z,7.55
2023-05-22T10:19:17.737Z,7.15
2023-05-22T10:22:06.115Z,7.93
2023-05-22T10:24:54.035Z,7.65
2023-05-22T10:27:41.630Z,6.90
2023-05-22T10:30:41.251Z,7.43
2023-05-22T10:33:34.193Z,6.97
2023-05-22T10:36:50.066Z,7.13
2023-05-22T10:39:58.301Z,7.00
2023-05-22T10:42:46.049Z,7.70
2023-05-22T10:45:33.199Z,6.75
2023-05-22T10:48:23.014Z,7.13
2023-05-22T10:51:12.539Z,7.10
2023-05-22T10:54:02.382Z,6.88
2023-05-22T10:56:49.289Z,7.63
2023-05-22T10:59:36.205Z,7.45
2023-05-22T11:02:31.372Z,6.72
2023-05-22T11:05:21.662Z,7.22
2023-05-22T11:08:32.525Z,7.90
2023-05-22T11:11:19.425Z,6.28
2023-05-22T11:14:06.433Z,6.55
2023-05-22T11:17:00.188Z,7.78
2023-05-22T11:20:06.626Z,6.07
2023-05-22T11:22:59.715Z,7.85
2023-05-22T11:25:46.700Z,6.45
2023-05-22T11:28:33.688Z,6.85
2023-05-22T11:31:23.248Z,6.75
2023-05-22T11:34:12.512Z,6.82
2023-05-22T11:37:00.176Z,7.82
2023-05-22T11:40:06.605Z,6.47
2023-05-22T11:42:53.942Z,7.40
2023-05-22T11:45:40.866Z,7.35
2023-05-22T11:48:29.061Z,6.72
2023-05-22T11:51:20.340Z,7.03
2023-05-22T11:54:07.775Z,7.03
2023-05-22T11:56:54.754Z,7.13
2023-05-22T11:59:46.852Z,7.10
2023-05-22T12:02:34.929Z,7.20
2023-05-22T12:05:21.938Z,7.32
2023-05-22T12:08:08.953Z,5.93
2023-05-22T12:10:55.970Z,6.82
2023-05-22T12:13:42.908Z,7.10
2023-05-22T12:16:36.327Z,7.35
2023-05-22T12:19:25.908Z,7.43
2023-05-22T12:22:14.165Z,7.63
2023-05-22T12:25:01.175Z,7.40
2023-05-22T12:27:48.042Z,7.28
2023-05-22T12:30:42.282Z,6.57
2023-05-22T12:33:30.658Z,6.22
2023-05-22T12:36:17.536Z,6.70
2023-05-22T12:39:09.272Z,7.47
2023-05-22T12:41:56.941Z,6.47
2023-05-22T12:44:45.863Z,7.43
2023-05-22T12:47:32.766Z,7.20
2023-05-22T12:50:19.678Z,6.32
2023-05-22T12:53:06.870Z,6.95
2023-05-22T12:55:53.780Z,6.15
2023-05-22T12:58:40.770Z,6.20
2023-05-22T13:01:27.916Z,5.72
2023-05-22T13:04:14.826Z,6.05
2023-05-22T13:07:01.729Z,6.80
2023-05-22T13:09:51.813Z,6.00
2023-05-22T13:12:38.744Z,6.57
2023-05-22T13:15:25.759Z,6.45
2023-05-22T13:18:12.883Z,6.00
2023-05-22T13:21:00.673Z,6.68
2023-05-22T13:23:47.591Z,6.82
2023-05-22T13:26:34.547Z,6.10
2023-05-22T13:29:21.516Z,6.35
2023-05-22T13:32:08.528Z,6.82
2023-05-22T13:34:55.387Z,8.02
2023-05-22T13:37:42.458Z,7.13
2023-05-22T13:40:29.369Z,7.43
2023-05-22T13:43:16.404Z,6.35
2023-05-22T13:46:04.099Z,7.47
2023-05-22T13:48:51.222Z,7.68
2023-05-22T13:51:38.134Z,7.90
2023-05-22T13:54:25.135Z,8.80
2023-05-22T13:57:11.986Z,8.23
2023-05-22T13:59:58.937Z,7.35
2023-05-22T14:02:46.511Z,8.25
2023-05-22T14:05:33.519Z,8.43
2023-05-22T14:08:20.589Z,7.70
2023-05-22T14:11:07.593Z,7.70
2023-05-22T14:13:54.616Z,7.80
2023-05-22T14:16:41.649Z,8.13
2023-05-22T14:19:28.621Z,7.70
2023-05-22T14:22:15.567Z,7.88
2023-05-22T14:25:03.032Z,7.32
2023-05-22T14:27:49.939Z,7.20
2023-05-22T14:30:37.145Z,7.40
2023-05-22T14:33:24.101Z,7.47
2023-05-22T14:36:11.032Z,7.80
2023-05-22T14:38:57.961Z,7.05
2023-05-22T14:41:44.819Z,6.47
2023-05-22T14:44:31.793Z,7.15
2023-05-22T14:47:18.680Z,8.48
2023-05-22T14:50:18.009Z,7.50
2023-05-22T14:53:06.284Z,7.30
2023-05-22T14:55:53.189Z,8.40
2023-05-22T14:58:40.261Z,7.90
2023-05-22T15:01:27.317Z,7.72
2023-05-22T15:04:14.241Z,6.90
2023-05-22T15:07:01.714Z,6.88
2023-05-22T15:09:56.326Z,7.40
2023-05-22T15:12:43.227Z,7.38
2023-05-22T15:15:30.179Z,7.28
2023-05-22T15:18:17.326Z,6.70
2023-05-22T15:21:04.418Z,7.20
2023-05-22T15:23:51.414Z,6.75
2023-05-22T15:26:38.328Z,6.45
2023-05-22T15:29:25.175Z,6.10
2023-05-22T15:32:12.110Z,6.65
2023-05-22T15:34:59.111Z,6.07
2023-05-22T15:37:46.463Z,5.88
2023-05-22T15:40:33.399Z,6.43
2023-05-22T15:43:20.601Z,5.95
2023-05-22T15:46:07.648Z,6.57
2023-05-22T15:48:54.536Z,6.55
2023-05-22T15:51:41.479Z,5.65
2023-05-22T15:54:28.344Z,6.47
2023-05-22T15:57:15.563Z,6.20
2023-05-22T16:00:02.493Z,5.93
2023-05-22T16:02:49.658Z,7.38
2023-05-22T16:05:38.852Z,5.75
2023-05-22T16:08:26.034Z,5.88
2023-05-22T16:11:13.432Z,6.38
2023-05-22T16:14:00.584Z,6.38
2023-05-22T16:16:47.676Z,5.28
2023-05-22T16:19:34.900Z,5.40
2023-05-22T16:22:22.608Z,5.55
2023-05-22T16:25:11.246Z,5.80
2023-05-22T16:27:58.204Z,5.75
2023-05-22T16:30:45.077Z,6.00
2023-05-22T16:33:32.672Z,7.25
2023-05-22T16:36:19.624Z,7.50
2023-05-22T16:39:06.567Z,6.68
2023-05-22T16:41:53.936Z,5.88
2023-05-22T16:44:40.928Z,6.07
2023-05-22T16:47:28.903Z,5.57
2023-05-22T16:50:15.842Z,6.70
2023-05-22T16:53:02.825Z,6.20
2023-05-22T16:55:49.687Z,7.35
2023-05-22T16:58:36.698Z,6.03
2023-05-22T17:01:23.787Z,6.32
2023-05-22T17:04:14.733Z,6.53
2023-05-22T17:07:01.696Z,6.88
2023-05-22T17:09:48.618Z,6.75
2023-05-22T17:12:35.607Z,6.38
2023-05-22T17:15:22.625Z,6.68
2023-05-22T17:18:09.714Z,7.20
2023-05-22T17:20:57.025Z,6.65
2023-05-22T17:23:43.969Z,5.97
2023-05-22T17:26:33.159Z,6.28
2023-05-22T17:29:20.046Z,6.53
2023-05-22T17:32:07.131Z,6.28
2023-05-22T17:34:53.953Z,6.22
2023-05-22T17:37:40.847Z,5.13
2023-05-22T17:40:40.491Z,5.95
2023-05-22T17:43:35.035Z,6.10
2023-05-22T17:46:21.924Z,6.25
2023-05-22T17:49:08.909Z,6.22
2023-05-22T17:51:55.767Z,6.40
2023-05-22T17:54:42.680Z,6.20
2023-05-22T17:57:29.592Z,6.57
2023-05-22T18:00:17.039Z,5.80
2023-05-22T18:03:03.997Z,6.82
2023-05-22T18:05:51.490Z,5.68
2023-05-22T18:08:39.966Z,6.82
2023-05-22T18:11:26.938Z,5.03
2023-05-22T18:14:13.927Z,5.15
2023-05-22T18:17:00.934Z,7.43
2023-05-22T18:19:47.764Z,5.60
2023-05-22T18:22:37.129Z,5.85
2023-05-22T18:25:24.109Z,5.25
2023-05-22T18:28:11.389Z,5.28
2023-05-22T18:30:58.304Z,5.93
2023-05-22T18:33:45.186Z,5.72
2023-05-22T18:36:32.115Z,5.28
2023-05-22T18:39:19.045Z,5.10
2023-05-22T18:42:06.419Z,4.75
2023-05-22T18:44:53.349Z,5.00
2023-05-22T18:47:40.421Z,4.72
2023-05-22T18:50:27.361Z,6.43
2023-05-22T18:53:14.209Z,5.00
2023-05-22T18:56:01.111Z,5.82
2023-05-22T18:58:47.989Z,5.55
2023-05-22T19:01:34.981Z,5.72
2023-05-22T19:04:22.054Z,5.47
2023-05-22T19:07:09.165Z,6.32
2023-05-22T19:09:56.064Z,6.00
2023-05-22T19:12:43.026Z,5.65
2023-05-22T19:15:29.907Z,5.55
2023-05-22T19:18:19.197Z,5.75
2023-05-22T19:21:06.186Z,6.13
2023-05-22T19:23:53.098Z,5.40
2023-05-22T19:26:40.013Z,6.80
2023-05-22T19:29:26.955Z,6.28
2023-05-22T19:32:14.262Z,23.73
2023-05-22T19:35:01.525Z,6.20
2023-05-22T19:37:49.379Z,5.95
2023-05-22T19:40:36.408Z,7.35
2023-05-22T19:43:23.395Z,6.40
2023-05-22T19:46:10.623Z,6.53
2023-05-22T19:48:57.503Z,6.15
2023-05-22T19:51:44.943Z,6.20
2023-05-22T19:54:31.789Z,7.20
2023-05-22T19:57:21.654Z,6.57
2023-05-22T20:00:13.351Z,7.13
2023-05-22T20:03:01.926Z,7.47
2023-05-22T20:05:52.866Z,7.05
2023-05-22T20:08:41.406Z,6.57
2023-05-22T20:11:29.147Z,7.13
2023-05-22T20:14:16.208Z,7.72
2023-05-22T20:17:04.914Z,7.90
2023-05-22T20:19:52.011Z,6.68
2023-05-22T20:22:39.031Z,8.05
2023-05-22T20:25:26.764Z,6.82
2023-05-22T20:28:14.405Z,7.57
2023-05-22T20:31:03.589Z,6.68
2023-05-22T20:33:50.563Z,7.28
2023-05-22T20:36:39.542Z,6.70
2023-05-22T20:39:28.207Z,7.22
2023-05-22T20:42:15.067Z,7.60
2023-05-22T20:45:02.285Z,7.72
2023-05-22T20:47:49.226Z,8.13
2023-05-22T20:50:39.966Z,8.52
2023-05-22T20:53:27.041Z,7.72
2023-05-22T20:56:14.046Z,7.75
2023-05-22T20:59:01.309Z,8.35
2023-05-22T21:01:48.152Z,7.72
2023-05-22T21:04:35.112Z,7.93
2023-05-22T21:07:22.337Z,7.97
2023-05-22T21:10:09.649Z,8.93
2023-05-22T21:12:56.829Z,8.25
2023-05-22T21:15:43.842Z,8.25
2023-05-22T21:18:30.779Z,8.57
2023-05-22T21:21:20.386Z,7.40
2023-05-22T21:24:10.979Z,8.05
2023-05-22T21:26:58.095Z,8.02
2023-05-22T21:29:44.972Z,9.18
2023-05-22T21:32:31.852Z,8.25
2023-05-22T21:35:18.711Z,7.95
2023-05-22T21:38:05.574Z,7.97
2023-05-22T21:40:52.433Z,7.78
2023-05-22T21:43:39.527Z,8.48
2023-05-22T21:46:26.422Z,8.70
2023-05-22T21:49:13.486Z,8.48
2023-05-22T21:52:00.512Z,8.85
2023-05-22T21:54:49.057Z,8.50
2023-05-22T21:57:36.750Z,8.82
2023-05-22T22:00:23.737Z,8.15
2023-05-22T22:03:10.652Z,8.77
2023-05-22T22:05:57.686Z,9.10
2023-05-22T22:08:44.534Z,8.82
2023-05-22T22:11:31.432Z,8.65
2023-05-22T22:14:18.921Z,8.52
2023-05-22T22:17:07.847Z,8.88
2023-05-22T22:19:56.884Z,8.70
2023-05-22T22:22:43.834Z,8.38
2023-05-22T22:25:30.717Z,8.38
2023-05-22T22:28:18.050Z,8.20
2023-05-22T22:31:05.995Z,8.63
2023-05-22T22:33:52.857Z,9.25
2023-05-22T22:36:40.072Z,8.10
2023-05-22T22:39:27.047Z,8.75
2023-05-22T22:42:19.362Z,8.45
2023-05-22T22:45:07.135Z,8.98
2023-05-22T22:47:56.511Z,8.80
2023-05-22T22:50:44.125Z,9.52
2023-05-22T22:53:31.200Z,8.85
2023-05-22T22:56:18.159Z,8.95
2023-05-22T22:59:05.009Z,8.63
2023-05-22T23:01:52.200Z,8.80
2023-05-22T23:04:39.229Z,7.80
2023-05-22T23:07:26.180Z,8.77
2023-05-22T23:10:14.182Z,8.65
2023-05-22T23:13:01.143Z,8.27
2023-05-22T23:15:48.758Z,8.13
2023-05-22T23:18:38.236Z,8.43
2023-05-22T23:21:25.135Z,8.25
2023-05-22T23:24:12.111Z,8.70
2023-05-22T23:26:59.007Z,9.23
2023-05-22T23:29:45.911Z,8.45
2023-05-22T23:32:32.774Z,8.82
2023-05-22T23:35:19.752Z,9.38
2023-05-22T23:38:06.594Z,9.02
2023-05-22T23:40:53.526Z,9.05
2023-05-22T23:43:40.456Z,8.45
2023-05-22T23:46:27.430Z,10.18
2023-05-22T23:49:14.280Z,10.20
2023-05-22T23:52:01.554Z,8.23
2023-05-22T23:54:48.427Z,8.30
2023-05-22T23:57:35.591Z,8.65
